createdAt,value
2018-03-31T00:02:01.095Z,5.80
2018-03-31T00:04:27.634Z,5.70
2018-03-31T00:06:54.214Z,5.70
2018-03-31T00:09:21.129Z,5.55
2018-03-31T00:11:47.775Z,5.68
2018-03-31T00:14:14.603Z,5.30
2018-03-31T00:16:41.192Z,5.32
2018-03-31T00:19:08.086Z,5.43
2018-03-31T00:21:34.931Z,5.72
2018-03-31T00:24:01.776Z,5.55
2018-03-31T00:26:28.619Z,5.70
2018-03-31T00:28:55.193Z,4.90
2018-03-31T00:31:21.803Z,5.70
2018-03-31T00:33:48.639Z,5.60
2018-03-31T00:36:15.210Z,5.30
2018-03-31T00:38:41.799Z,5.95
2018-03-31T00:41:08.364Z,5.60
2018-03-31T00:43:34.985Z,5.40
2018-03-31T00:46:01.830Z,5.80
2018-03-31T00:48:28.440Z,5.60
2018-03-31T00:50:55.015Z,5.12
2018-03-31T00:53:21.951Z,5.78
2018-03-31T00:55:48.790Z,5.50
2018-03-31T00:58:15.361Z,6.30
2018-03-31T01:00:41.934Z,6.03
2018-03-31T01:03:08.806Z,5.70
2018-03-31T01:05:35.655Z,6.35
2018-03-31T01:08:02.496Z,5.60
2018-03-31T01:10:29.081Z,5.68
2018-03-31T01:12:55.638Z,6.12
2018-03-31T01:15:22.235Z,6.15
2018-03-31T01:17:49.146Z,6.00
2018-03-31T01:20:15.767Z,6.10
2018-03-31T01:22:42.334Z,6.25
2018-03-31T01:25:09.162Z,5.97
2018-03-31T01:27:35.781Z,5.82
2018-03-31T01:30:02.346Z,5.60
2018-03-31T01:32:28.936Z,6.28
2018-03-31T01:34:55.505Z,6.43
2018-03-31T01:37:22.357Z,6.53
2018-03-31T01:39:49.201Z,6.13
2018-03-31T01:42:15.836Z,6.00
2018-03-31T01:44:42.389Z,6.57
2018-03-31T01:47:08.983Z,6.35
2018-03-31T01:49:35.863Z,6.50
2018-03-31T01:52:02.702Z,6.50
2018-03-31T01:54:29.302Z,6.30
2018-03-31T01:56:56.187Z,6.35
2018-03-31T01:59:22.770Z,6.50
2018-03-31T02:01:49.375Z,6.28
2018-03-31T02:04:15.999Z,6.43
2018-03-31T02:06:42.586Z,6.25
2018-03-31T02:09:09.479Z,6.07
2018-03-31T02:11:36.318Z,6.50
2018-03-31T02:14:02.886Z,6.40
2018-03-31T02:16:29.434Z,6.53
2018-03-31T02:18:56.026Z,6.50
2018-03-31T02:21:22.628Z,7.20
2018-03-31T02:23:49.509Z,6.72
2018-03-31T02:26:16.459Z,6.70
2018-03-31T02:28:43.298Z,7.15
2018-03-31T02:31:09.892Z,7.20
2018-03-31T02:33:36.508Z,6.50
2018-03-31T02:36:03.074Z,6.35
2018-03-31T02:38:29.661Z,7.10
2018-03-31T02:40:56.601Z,6.60
2018-03-31T02:43:23.166Z,6.85
2018-03-31T02:45:49.751Z,6.65
2018-03-31T02:48:16.334Z,6.75
2018-03-31T02:50:42.885Z,6.50
2018-03-31T02:53:09.495Z,6.30
2018-03-31T02:55:36.083Z,6.80
2018-03-31T02:58:02.629Z,6.43
2018-03-31T03:00:29.223Z,7.30
2018-03-31T03:02:55.789Z,6.97
2018-03-31T03:05:22.572Z,7.17
2018-03-31T03:07:49.431Z,6.90
2018-03-31T03:10:16.015Z,6.50
2018-03-31T03:12:42.611Z,6.78
2018-03-31T03:15:09.151Z,7.00
2018-03-31T03:17:35.526Z,6.87
2018-03-31T03:20:01.870Z,6.95
2018-03-31T03:22:28.234Z,6.80
2018-03-31T03:24:54.594Z,7.20
2018-03-31T03:27:20.933Z,7.30
2018-03-31T03:29:47.304Z,7.00
2018-03-31T03:32:14.060Z,6.95
2018-03-31T03:34:40.393Z,7.10
2018-03-31T03:37:07.031Z,7.18
2018-03-31T03:39:33.670Z,6.80
2018-03-31T03:42:00.302Z,7.22
2018-03-31T03:44:26.675Z,7.03
2018-03-31T03:46:53.036Z,6.90
2018-03-31T03:49:19.713Z,7.32
2018-03-31T03:51:46.042Z,6.82
2018-03-31T03:54:12.674Z,7.35
2018-03-31T03:56:39.036Z,7.40
2018-03-31T03:59:05.396Z,6.87
2018-03-31T04:01:32.087Z,7.10
2018-03-31T04:03:58.717Z,7.80
2018-03-31T04:06:25.353Z,7.10
2018-03-31T04:08:51.755Z,6.90
2018-03-31T04:11:18.431Z,7.50
2018-03-31T04:13:45.062Z,7.12
2018-03-31T04:16:11.456Z,7.20
2018-03-31T04:18:37.819Z,7.28
2018-03-31T04:21:04.471Z,6.70
2018-03-31T04:23:30.833Z,6.70
2018-03-31T04:25:57.202Z,6.80
2018-03-31T04:28:23.534Z,6.72
2018-03-31T04:30:49.939Z,7.03
2018-03-31T04:33:16.540Z,6.75
2018-03-31T04:35:42.894Z,7.00
2018-03-31T04:38:09.324Z,7.20
2018-03-31T04:40:35.665Z,6.50
2018-03-31T04:43:02.014Z,7.07
2018-03-31T04:45:28.702Z,6.70
2018-03-31T04:47:55.083Z,6.70
2018-03-31T04:50:21.671Z,6.70
2018-03-31T04:52:48.034Z,6.37
2018-03-31T04:55:14.663Z,6.80
2018-03-31T04:57:41.223Z,6.07
2018-03-31T05:00:07.622Z,6.70
2018-03-31T05:02:33.986Z,6.50
2018-03-31T05:05:00.322Z,6.68
2018-03-31T05:07:26.677Z,6.70
2018-03-31T05:09:53.052Z,7.25
2018-03-31T05:12:19.425Z,6.82
2018-03-31T05:14:45.760Z,6.18
2018-03-31T05:17:12.441Z,6.72
2018-03-31T05:19:39.186Z,6.50
2018-03-31T05:22:05.519Z,6.87
2018-03-31T05:24:31.923Z,6.30
2018-03-31T05:26:58.288Z,6.70
2018-03-31T05:29:24.913Z,6.32
2018-03-31T05:31:51.277Z,6.28
2018-03-31T05:34:17.622Z,6.50
2018-03-31T05:36:43.993Z,6.82
2018-03-31T05:39:10.338Z,6.85
2018-03-31T05:41:36.706Z,7.20
2018-03-31T05:44:03.061Z,6.57
2018-03-31T05:46:29.642Z,6.70
2018-03-31T05:48:56.274Z,6.87
2018-03-31T05:51:22.922Z,6.40
2018-03-31T05:53:49.563Z,7.20
2018-03-31T05:56:15.918Z,7.10
2018-03-31T05:58:42.525Z,7.10
2018-03-31T06:01:08.902Z,7.72
2018-03-31T06:03:35.552Z,7.10
2018-03-31T06:06:01.884Z,7.20
2018-03-31T06:08:28.271Z,7.28
2018-03-31T06:10:54.601Z,7.03
2018-03-31T06:13:20.995Z,6.60
2018-03-31T06:15:47.674Z,6.78
2018-03-31T06:18:14.041Z,6.30
2018-03-31T06:20:40.407Z,6.62
2018-03-31T06:23:06.766Z,6.70
2018-03-31T06:25:33.135Z,6.60
2018-03-31T06:27:59.506Z,6.30
2018-03-31T06:30:25.911Z,6.35
2018-03-31T06:32:52.275Z,5.97
2018-03-31T06:35:18.938Z,6.80
2018-03-31T06:37:45.286Z,6.07
2018-03-31T06:40:11.665Z,6.10
2018-03-31T06:42:38.024Z,6.37
2018-03-31T06:45:04.662Z,6.00
2018-03-31T06:47:31.054Z,6.35
2018-03-31T06:49:57.433Z,6.87
2018-03-31T06:52:23.786Z,6.05
2018-03-31T06:54:50.121Z,6.60
2018-03-31T06:57:16.739Z,6.57
2018-03-31T06:59:43.475Z,6.57
2018-03-31T07:02:09.839Z,6.00
2018-03-31T07:04:36.207Z,6.50
2018-03-31T07:07:02.561Z,5.93
2018-03-31T07:09:28.902Z,6.30
2018-03-31T07:11:55.246Z,5.72
2018-03-31T07:14:21.666Z,6.20
2018-03-31T07:16:48.023Z,6.10
2018-03-31T07:19:14.361Z,6.32
2018-03-31T07:21:41.067Z,6.30
2018-03-31T07:24:07.456Z,6.00
2018-03-31T07:26:34.959Z,6.57
2018-03-31T07:29:01.566Z,6.50
2018-03-31T07:31:27.948Z,6.18
2018-03-31T07:33:54.363Z,6.50
2018-03-31T07:36:20.754Z,6.30
2018-03-31T07:38:47.133Z,6.40
2018-03-31T07:41:13.767Z,6.70
2018-03-31T07:43:40.112Z,6.82
2018-03-31T07:46:06.766Z,6.70
2018-03-31T07:48:33.097Z,6.32
2018-03-31T07:50:59.468Z,6.50
2018-03-31T07:53:25.848Z,5.70
2018-03-31T07:55:52.466Z,23.03
2018-03-31T07:58:19.212Z,10.23
2018-03-31T08:00:45.584Z,6.40
2018-03-31T08:03:12.184Z,6.70
2018-03-31T08:05:38.571Z,6.78
2018-03-31T08:08:04.939Z,6.68
2018-03-31T08:10:31.328Z,8.18
2018-03-31T08:12:57.692Z,6.80
2018-03-31T08:15:24.031Z,6.85
2018-03-31T08:17:50.679Z,6.77
2018-03-31T08:20:17.245Z,7.53
2018-03-31T08:22:43.618Z,8.48
2018-03-31T08:25:09.970Z,7.80
2018-03-31T08:27:36.346Z,7.30
2018-03-31T08:30:02.738Z,7.47
2018-03-31T08:32:29.093Z,7.32
2018-03-31T08:34:55.487Z,7.03
2018-03-31T08:37:21.851Z,7.50
2018-03-31T08:39:48.189Z,7.22
2018-03-31T08:42:14.576Z,7.78
2018-03-31T08:44:40.908Z,7.72
2018-03-31T08:47:07.300Z,7.80
2018-03-31T08:49:33.911Z,8.07
2018-03-31T08:52:00.547Z,8.20
2018-03-31T08:54:26.944Z,7.95
2018-03-31T08:56:53.315Z,8.80
2018-03-31T08:59:20.054Z,9.48
2018-03-31T09:01:46.691Z,9.73
2018-03-31T09:04:13.032Z,9.30
2018-03-31T09:06:39.394Z,10.65
2018-03-31T09:09:06.150Z,13.40
2018-03-31T09:11:32.515Z,11.98
2018-03-31T09:13:58.866Z,10.18
2018-03-31T09:16:25.262Z,9.60
2018-03-31T09:18:51.931Z,9.75
2018-03-31T09:21:18.320Z,9.80
2018-03-31T09:23:44.681Z,9.70
2018-03-31T09:26:11.341Z,9.60
2018-03-31T09:28:37.676Z,9.02
2018-03-31T09:31:04.063Z,9.80
2018-03-31T09:33:30.436Z,10.63
2018-03-31T09:35:56.823Z,9.90
2018-03-31T09:38:23.394Z,9.95
2018-03-31T09:40:50.040Z,10.33
2018-03-31T09:43:16.397Z,10.35
2018-03-31T09:45:42.790Z,10.60
2018-03-31T09:48:09.163Z,9.43
2018-03-31T09:50:35.721Z,9.85
2018-03-31T09:53:02.111Z,10.23
2018-03-31T09:55:28.501Z,9.90
2018-03-31T09:57:55.175Z,9.57
2018-03-31T10:00:21.582Z,10.50
2018-03-31T10:02:47.941Z,10.80
2018-03-31T10:05:14.294Z,10.45
2018-03-31T10:07:40.662Z,10.57
2018-03-31T10:10:07.009Z,10.10
2018-03-31T10:12:33.418Z,10.30
2018-03-31T10:15:00.001Z,10.77
2018-03-31T10:17:26.342Z,9.75
2018-03-31T10:19:52.731Z,11.20
2018-03-31T10:22:19.078Z,10.18
2018-03-31T10:24:45.715Z,10.10
2018-03-31T10:27:12.387Z,10.25
2018-03-31T10:29:38.750Z,10.50
2018-03-31T10:32:06.143Z,10.00
2018-03-31T10:34:32.806Z,10.20
2018-03-31T10:36:59.208Z,9.70
2018-03-31T10:39:25.778Z,10.32
2018-03-31T10:41:52.148Z,10.70
2018-03-31T10:44:18.742Z,9.82
2018-03-31T10:46:45.081Z,9.93
2018-03-31T10:49:11.454Z,10.10
2018-03-31T10:51:38.042Z,10.40
2018-03-31T10:54:04.393Z,10.45
2018-03-31T10:56:30.756Z,10.32
2018-03-31T10:58:57.097Z,10.80
2018-03-31T11:01:23.515Z,10.65
2018-03-31T11:03:50.113Z,11.70
2018-03-31T11:06:16.531Z,11.70
2018-03-31T11:08:42.985Z,11.70
2018-03-31T11:11:09.371Z,11.93
2018-03-31T11:13:35.738Z,13.30
2018-03-31T11:16:02.124Z,12.15
2018-03-31T11:18:28.495Z,12.00
2018-03-31T11:20:55.146Z,12.32
2018-03-31T11:23:21.496Z,12.63
2018-03-31T11:25:47.903Z,12.45
2018-03-31T11:28:14.547Z,12.18
2018-03-31T11:30:40.943Z,12.17
2018-03-31T11:33:07.618Z,12.43
2018-03-31T11:35:33.968Z,12.73
2018-03-31T11:38:00.696Z,11.77
2018-03-31T11:40:27.064Z,12.18
2018-03-31T11:42:53.409Z,11.88
2018-03-31T11:45:19.761Z,13.70
2018-03-31T11:47:46.338Z,13.27
2018-03-31T11:50:12.972Z,12.35
2018-03-31T11:52:39.606Z,12.65
2018-03-31T11:55:06.243Z,12.37
2018-03-31T11:57:32.875Z,12.60
2018-03-31T11:59:59.541Z,12.60
2018-03-31T12:02:25.889Z,12.43
2018-03-31T12:04:52.234Z,12.80
2018-03-31T12:07:18.623Z,11.98
2018-03-31T12:09:45.430Z,11.80
2018-03-31T12:12:11.839Z,12.48
2018-03-31T12:14:38.260Z,11.27
2018-03-31T12:17:04.863Z,11.77
2018-03-31T12:19:31.493Z,11.43
2018-03-31T12:21:57.883Z,11.80
2018-03-31T12:24:24.255Z,13.63
2018-03-31T12:26:50.894Z,12.85
2018-03-31T12:29:17.279Z,12.30
2018-03-31T12:31:43.655Z,13.00
2018-03-31T12:34:10.047Z,11.95
2018-03-31T12:36:36.443Z,12.70
2018-03-31T12:39:02.817Z,12.07
2018-03-31T12:41:29.173Z,12.32
2018-03-31T12:43:55.545Z,13.07
2018-03-31T12:46:22.136Z,12.70
2018-03-31T12:48:48.533Z,13.32
2018-03-31T12:51:14.905Z,13.77
2018-03-31T12:53:41.303Z,26.50
2018-03-31T12:56:08.042Z,13.48
2018-03-31T12:58:34.374Z,13.25
2018-03-31T13:01:00.767Z,13.20
2018-03-31T13:03:27.144Z,12.73
2018-03-31T13:05:53.531Z,13.13
2018-03-31T13:08:21.272Z,12.80
2018-03-31T13:10:49.464Z,13.53
2018-03-31T13:13:15.797Z,13.18
2018-03-31T13:15:42.434Z,13.23
2018-03-31T13:18:08.784Z,13.57
2018-03-31T13:20:35.192Z,12.30
2018-03-31T13:23:01.582Z,12.20
2018-03-31T13:25:27.927Z,13.65
2018-03-31T13:27:54.607Z,12.73
2018-03-31T13:30:20.983Z,12.90
2018-03-31T13:32:47.680Z,12.68
2018-03-31T13:35:14.043Z,12.80
2018-03-31T13:37:40.378Z,12.30
2018-03-31T13:40:06.758Z,12.00
2018-03-31T13:42:33.409Z,11.70
2018-03-31T13:44:59.983Z,12.60
2018-03-31T13:47:26.371Z,11.52
2018-03-31T13:49:53.017Z,11.38
2018-03-31T13:52:19.392Z,10.80
2018-03-31T13:54:45.986Z,11.10
2018-03-31T13:57:12.621Z,11.07
2018-03-31T13:59:39.020Z,11.00
2018-03-31T14:02:05.395Z,11.80
2018-03-31T14:04:31.758Z,11.43
2018-03-31T14:06:58.131Z,12.35
2018-03-31T14:09:24.505Z,18.30
2018-03-31T14:11:50.834Z,10.60
2018-03-31T14:14:17.193Z,10.93
2018-03-31T14:16:43.596Z,12.05
2018-03-31T14:19:09.979Z,10.88
2018-03-31T14:21:36.677Z,11.02
2018-03-31T14:24:03.051Z,11.40
2018-03-31T14:26:29.633Z,11.10
2018-03-31T14:28:56.258Z,9.98
2018-03-31T14:31:22.908Z,10.07
2018-03-31T14:33:49.258Z,9.85
2018-03-31T14:36:15.644Z,9.32
2018-03-31T14:38:41.989Z,8.95
2018-03-31T14:41:08.465Z,9.10
2018-03-31T14:43:34.799Z,9.10
2018-03-31T14:46:01.155Z,8.93
2018-03-31T14:48:27.540Z,8.40
2018-03-31T14:50:53.919Z,8.50
2018-03-31T14:53:20.593Z,8.80
2018-03-31T14:55:46.980Z,8.52
2018-03-31T14:58:13.675Z,8.70
2018-03-31T15:00:40.022Z,8.50
2018-03-31T15:03:06.649Z,9.07
2018-03-31T15:05:33.274Z,8.18
2018-03-31T15:07:59.622Z,8.32
2018-03-31T15:10:25.995Z,8.35
2018-03-31T15:12:52.678Z,8.30
2018-03-31T15:15:19.030Z,8.50
2018-03-31T15:17:45.406Z,8.70
2018-03-31T15:20:11.779Z,10.85
2018-03-31T15:22:38.130Z,8.60
2018-03-31T15:25:04.519Z,8.48
2018-03-31T15:27:30.888Z,9.05
2018-03-31T15:29:57.279Z,9.10
2018-03-31T15:32:23.618Z,10.05
2018-03-31T15:34:50.333Z,8.10
2018-03-31T15:37:16.717Z,8.00
2018-03-31T15:39:43.092Z,6.75
2018-03-31T15:42:09.474Z,6.62
2018-03-31T15:44:35.814Z,6.70
2018-03-31T15:47:02.170Z,7.22
2018-03-31T15:49:28.526Z,7.43
2018-03-31T15:51:54.879Z,8.50
2018-03-31T15:54:21.252Z,8.13
2018-03-31T15:56:47.613Z,7.50
2018-03-31T15:59:13.949Z,7.17
2018-03-31T16:01:40.331Z,7.37
2018-03-31T16:04:06.927Z,7.00
2018-03-31T16:06:33.293Z,7.00
2018-03-31T16:08:59.655Z,7.70
2018-03-31T16:11:26.039Z,8.10
2018-03-31T16:13:52.394Z,15.83
2018-03-31T16:16:19.041Z,10.65
2018-03-31T16:18:45.435Z,10.57
2018-03-31T16:21:12.103Z,8.05
2018-03-31T16:23:38.474Z,9.30
2018-03-31T16:26:04.828Z,8.65
2018-03-31T16:28:31.511Z,8.20
2018-03-31T16:30:57.926Z,8.40
2018-03-31T16:33:24.352Z,8.02
2018-03-31T16:35:50.723Z,8.63
2018-03-31T16:38:17.112Z,8.57
2018-03-31T16:40:43.530Z,8.57
2018-03-31T16:43:09.926Z,8.70
2018-03-31T16:45:36.295Z,8.87
2018-03-31T16:48:03.072Z,8.52
2018-03-31T16:50:29.461Z,8.90
2018-03-31T16:52:55.828Z,9.10
2018-03-31T16:55:22.190Z,8.60
2018-03-31T16:57:48.643Z,8.80
2018-03-31T17:00:15.095Z,9.25
2018-03-31T17:02:41.445Z,9.00
2018-03-31T17:05:07.793Z,8.40
2018-03-31T17:07:34.331Z,9.05
2018-03-31T17:10:00.668Z,8.55
2018-03-31T17:12:27.315Z,8.30
2018-03-31T17:14:53.955Z,8.70
2018-03-31T17:17:20.350Z,8.73
2018-03-31T17:19:46.749Z,8.17
2018-03-31T17:22:13.115Z,8.80
2018-03-31T17:24:39.481Z,8.00
2018-03-31T17:27:05.966Z,8.57
2018-03-31T17:29:32.552Z,7.93
2018-03-31T17:31:58.924Z,8.50
2018-03-31T17:34:25.632Z,8.60
2018-03-31T17:36:52.045Z,8.40
2018-03-31T17:39:18.375Z,8.20
2018-03-31T17:41:45.029Z,8.25
2018-03-31T17:44:11.668Z,8.55
2018-03-31T17:46:38.002Z,8.93
2018-03-31T17:49:04.693Z,8.63
2018-03-31T17:51:31.006Z,8.90
2018-03-31T17:53:57.643Z,8.50
2018-03-31T17:56:24.039Z,7.90
2018-03-31T17:58:50.411Z,9.05
2018-03-31T18:01:16.742Z,8.40
2018-03-31T18:03:43.208Z,8.67
2018-03-31T18:06:09.918Z,8.73
2018-03-31T18:08:36.307Z,8.60
2018-03-31T18:11:02.642Z,8.03
2018-03-31T18:13:29.080Z,7.85
2018-03-31T18:15:55.436Z,8.73
2018-03-31T18:18:22.048Z,9.85
2018-03-31T18:20:48.406Z,8.68
2018-03-31T18:23:14.869Z,8.05
2018-03-31T18:25:41.240Z,7.72
2018-03-31T18:28:07.878Z,7.78
2018-03-31T18:30:34.211Z,7.87
2018-03-31T18:33:00.574Z,7.80
2018-03-31T18:35:26.943Z,6.68
2018-03-31T18:37:53.619Z,7.20
2018-03-31T18:40:20.033Z,6.75
2018-03-31T18:42:46.682Z,6.63
2018-03-31T18:45:13.092Z,7.40
2018-03-31T18:47:39.766Z,7.12
2018-03-31T18:50:06.139Z,6.72
2018-03-31T18:52:32.727Z,6.57
2018-03-31T18:54:59.107Z,6.55
2018-03-31T18:57:25.466Z,7.30
2018-03-31T18:59:51.844Z,7.32
2018-03-31T19:02:18.212Z,7.20
2018-03-31T19:04:44.568Z,8.00
2018-03-31T19:07:10.942Z,6.65
2018-03-31T19:09:37.396Z,7.70
2018-03-31T19:12:03.992Z,7.37
2018-03-31T19:14:30.363Z,6.50
2018-03-31T19:16:56.836Z,6.90
2018-03-31T19:19:23.497Z,6.30
2018-03-31T19:21:49.892Z,5.90
2018-03-31T19:24:16.571Z,6.10
2018-03-31T19:26:42.954Z,5.53
2018-03-31T19:29:09.643Z,5.70
2018-03-31T19:31:36.284Z,6.07
2018-03-31T19:34:02.675Z,5.90
2018-03-31T19:36:29.355Z,5.60
2018-03-31T19:38:55.762Z,5.80
2018-03-31T19:41:22.129Z,5.83
2018-03-31T19:43:48.751Z,6.30
2018-03-31T19:46:15.166Z,5.70
2018-03-31T19:48:41.506Z,5.97
2018-03-31T19:51:07.911Z,5.35
2018-03-31T19:53:34.486Z,5.70
2018-03-31T19:56:01.131Z,7.62
2018-03-31T19:58:27.482Z,6.12
2018-03-31T20:00:53.831Z,7.12
2018-03-31T20:03:20.208Z,4.90
2018-03-31T20:05:46.575Z,5.10
2018-03-31T20:08:13.302Z,4.93
2018-03-31T20:10:39.703Z,4.85
2018-03-31T20:13:06.067Z,3.95
2018-03-31T20:15:32.469Z,4.18
2018-03-31T20:17:58.832Z,4.07
2018-03-31T20:20:25.177Z,3.80
2018-03-31T20:22:51.528Z,3.70
2018-03-31T20:25:17.911Z,3.70
2018-03-31T20:27:44.306Z,3.70
2018-03-31T20:30:10.641Z,3.90
2018-03-31T20:32:36.978Z,3.72
2018-03-31T20:35:03.658Z,3.80
2018-03-31T20:37:30.032Z,3.50
2018-03-31T20:39:56.439Z,3.62
2018-03-31T20:42:22.781Z,3.20
2018-03-31T20:44:49.135Z,3.65
2018-03-31T20:47:15.819Z,4.70
2018-03-31T20:49:42.193Z,4.47
2018-03-31T20:52:08.553Z,10.52
2018-03-31T20:54:34.907Z,4.70
2018-03-31T20:57:01.563Z,4.20
2018-03-31T20:59:28.194Z,4.70
2018-03-31T21:01:54.546Z,5.85
2018-03-31T21:04:20.944Z,5.40
2018-03-31T21:06:47.282Z,4.50
2018-03-31T21:09:13.925Z,4.37
2018-03-31T21:11:40.295Z,4.10
2018-03-31T21:14:06.897Z,3.80
2018-03-31T21:16:33.647Z,3.83
2018-03-31T21:19:00.019Z,3.90
2018-03-31T21:21:26.402Z,3.53
2018-03-31T21:23:52.761Z,3.70
2018-03-31T21:26:19.145Z,4.60
2018-03-31T21:28:45.514Z,3.80
2018-03-31T21:31:11.861Z,3.60
2018-03-31T21:33:38.239Z,3.20
2018-03-31T21:36:04.586Z,3.40
2018-03-31T21:38:30.935Z,3.40
2018-03-31T21:40:57.566Z,3.40
2018-03-31T21:43:24.206Z,3.80
2018-03-31T21:45:50.575Z,3.60
2018-03-31T21:48:16.933Z,4.00
2018-03-31T21:50:43.299Z,3.90
2018-03-31T21:53:09.943Z,3.60
2018-03-31T21:55:36.581Z,3.42
2018-03-31T21:58:02.934Z,4.10
2018-03-31T22:00:29.323Z,3.47
2018-03-31T22:02:55.873Z,3.70
2018-03-31T22:05:22.519Z,3.60
2018-03-31T22:07:49.157Z,3.50
2018-03-31T22:10:15.531Z,3.50
2018-03-31T22:12:42.228Z,3.40
2018-03-31T22:15:08.561Z,3.30
2018-03-31T22:17:34.906Z,3.40
2018-03-31T22:20:01.266Z,3.50
2018-03-31T22:22:27.606Z,3.30
2018-03-31T22:24:53.984Z,3.17
2018-03-31T22:27:20.622Z,3.05
2018-03-31T22:29:47.003Z,3.60
2018-03-31T22:32:13.340Z,3.50
2018-03-31T22:34:40.034Z,3.53
2018-03-31T22:37:06.365Z,3.50
2018-03-31T22:39:32.748Z,3.50
2018-03-31T22:41:59.432Z,3.78
2018-03-31T22:44:25.789Z,4.00
2018-03-31T22:46:52.408Z,3.60
2018-03-31T22:49:18.803Z,3.72
2018-03-31T22:51:45.172Z,3.75
2018-03-31T22:54:11.801Z,3.80
2018-03-31T22:56:38.443Z,3.60
2018-03-31T22:59:04.782Z,3.40
2018-03-31T23:01:31.405Z,3.70
2018-03-31T23:03:57.978Z,4.00
2018-03-31T23:06:24.538Z,3.33
2018-03-31T23:08:51.111Z,3.40
2018-03-31T23:11:17.966Z,3.08
2018-03-31T23:13:44.541Z,3.10
2018-03-31T23:16:11.120Z,3.20
2018-03-31T23:18:38.001Z,3.28
2018-03-31T23:21:04.542Z,3.40
2018-03-31T23:23:31.121Z,2.83
2018-03-31T23:25:57.676Z,3.60
2018-03-31T23:28:24.539Z,3.12
2018-03-31T23:30:51.082Z,3.60
2018-03-31T23:33:17.661Z,3.53
2018-03-31T23:35:44.206Z,3.70
2018-03-31T23:38:10.575Z,4.00
2018-03-31T23:40:36.970Z,4.15
2018-03-31T23:43:03.330Z,4.20
2018-03-31T23:45:29.665Z,4.53
2018-03-31T23:47:56.062Z,4.80
2018-03-31T23:50:22.428Z,5.28
2018-03-31T23:52:48.822Z,5.30
2018-03-31T23:55:15.211Z,5.00
2018-03-31T23:57:41.555Z,4.90
